LFRS 160400Z AUTO 00000KT 9999 VV/// 14/14 Q1016 TEMPO 0500 FG